sensor_id;sensor_type;location;lat;lon;timestamp;P1;durP1;ratioP1;P2;durP2;ratioP2
19257;SDS011;9763;48.780;9.212;2023-03-17T00:00:24;2.80;;;1.50;;
19257;SDS011;9763;48.780;9.212;2023-03-17T00:03:48;1.67;;;1.43;;
19257;SDS011;9763;48.780;9.212;2023-03-17T00:07:13;2.10;;;1.60;;
19257;SDS011;9763;48.780;9.212;2023-03-17T00:10:40;1.50;;;1.30;;
19257;SDS011;9763;48.780;9.212;2023-03-17T00:14:04;1.90;;;1.70;;
19257;SDS011;9763;48.780;9.212;2023-03-17T00:17:28;2.00;;;1.60;;
19257;SDS011;9763;48.780;9.212;2023-03-17T00:20:52;1.80;;;1.30;;
19257;SDS011;9763;48.780;9.212;2023-03-17T00:24:15;1.60;;;1.50;;
19257;SDS011;9763;48.780;9.212;2023-03-17T00:27:41;1.90;;;1.50;;
19257;SDS011;9763;48.780;9.212;2023-03-17T00:31:08;1.50;;;1.20;;
19257;SDS011;9763;48.780;9.212;2023-03-17T00:34:36;1.60;;;1.30;;
19257;SDS011;9763;48.780;9.212;2023-03-17T00:38:02;2.20;;;1.50;;
19257;SDS011;9763;48.780;9.212;2023-03-17T00:41:25;1.93;;;1.73;;
19257;SDS011;9763;48.780;9.212;2023-03-17T00:44:51;1.60;;;1.27;;
19257;SDS011;9763;48.780;9.212;2023-03-17T00:48:16;1.60;;;1.40;;
19257;SDS011;9763;48.780;9.212;2023-03-17T00:51:43;1.60;;;1.50;;
19257;SDS011;9763;48.780;9.212;2023-03-17T00:55:08;1.60;;;1.40;;
19257;SDS011;9763;48.780;9.212;2023-03-17T00:58:34;1.70;;;1.60;;
19257;SDS011;9763;48.780;9.212;2023-03-17T01:02:00;1.60;;;1.47;;
19257;SDS011;9763;48.780;9.212;2023-03-17T01:05:34;1.84;;;1.56;;
19257;SDS011;9763;48.780;9.212;2023-03-17T01:08:59;2.63;;;1.60;;
19257;SDS011;9763;48.780;9.212;2023-03-17T01:12:24;1.57;;;1.47;;
19257;SDS011;9763;48.780;9.212;2023-03-17T01:15:48;1.90;;;1.43;;
19257;SDS011;9763;48.780;9.212;2023-03-17T01:19:15;2.03;;;1.83;;
19257;SDS011;9763;48.780;9.212;2023-03-17T01:22:39;3.73;;;1.60;;
19257;SDS011;9763;48.780;9.212;2023-03-17T01:26:03;1.60;;;1.50;;
19257;SDS011;9763;48.780;9.212;2023-03-17T01:29:28;1.60;;;1.50;;
19257;SDS011;9763;48.780;9.212;2023-03-17T01:32:52;1.70;;;1.50;;
19257;SDS011;9763;48.780;9.212;2023-03-17T01:36:18;1.73;;;1.50;;
19257;SDS011;9763;48.780;9.212;2023-03-17T01:39:42;2.13;;;1.73;;
19257;SDS011;9763;48.780;9.212;2023-03-17T01:43:15;1.93;;;1.73;;
19257;SDS011;9763;48.780;9.212;2023-03-17T01:46:43;1.47;;;1.30;;
19257;SDS011;9763;48.780;9.212;2023-03-17T01:50:08;1.60;;;1.50;;
19257;SDS011;9763;48.780;9.212;2023-03-17T01:53:34;1.60;;;1.40;;
19257;SDS011;9763;48.780;9.212;2023-03-17T01:57:01;1.70;;;1.60;;
19257;SDS011;9763;48.780;9.212;2023-03-17T02:00:34;1.80;;;1.60;;
19257;SDS011;9763;48.780;9.212;2023-03-17T02:03:58;2.30;;;1.50;;
19257;SDS011;9763;48.780;9.212;2023-03-17T02:07:24;1.93;;;1.47;;
19257;SDS011;9763;48.780;9.212;2023-03-17T02:10:50;1.70;;;1.40;;
19257;SDS011;9763;48.780;9.212;2023-03-17T02:14:16;2.20;;;2.00;;
19257;SDS011;9763;48.780;9.212;2023-03-17T02:17:41;1.77;;;1.43;;
19257;SDS011;9763;48.780;9.212;2023-03-17T02:25:04;1.60;;;1.40;;
19257;SDS011;9763;48.780;9.212;2023-03-17T02:28:29;1.97;;;1.50;;
19257;SDS011;9763;48.780;9.212;2023-03-17T02:31:53;1.90;;;1.80;;
19257;SDS011;9763;48.780;9.212;2023-03-17T02:35:17;1.93;;;1.73;;
19257;SDS011;9763;48.780;9.212;2023-03-17T02:38:43;2.63;;;1.80;;
19257;SDS011;9763;48.780;9.212;2023-03-17T02:42:07;1.50;;;1.30;;
19257;SDS011;9763;48.780;9.212;2023-03-17T02:45:32;1.80;;;1.70;;
19257;SDS011;9763;48.780;9.212;2023-03-17T02:48:55;2.10;;;1.57;;
19257;SDS011;9763;48.780;9.212;2023-03-17T02:52:19;3.03;;;1.70;;
19257;SDS011;9763;48.780;9.212;2023-03-17T02:55:44;1.60;;;1.50;;
19257;SDS011;9763;48.780;9.212;2023-03-17T02:59:08;2.40;;;1.70;;
19257;SDS011;9763;48.780;9.212;2023-03-17T03:02:32;1.70;;;1.40;;
19257;SDS011;9763;48.780;9.212;2023-03-17T03:05:55;2.13;;;1.90;;
19257;SDS011;9763;48.780;9.212;2023-03-17T03:09:22;2.03;;;1.83;;
19257;SDS011;9763;48.780;9.212;2023-03-17T03:12:47;2.37;;;1.80;;
19257;SDS011;9763;48.780;9.212;2023-03-17T03:16:11;1.93;;;1.73;;
19257;SDS011;9763;48.780;9.212;2023-03-17T03:19:35;2.30;;;2.10;;
19257;SDS011;9763;48.780;9.212;2023-03-17T03:22:58;2.03;;;1.83;;
19257;SDS011;9763;48.780;9.212;2023-03-17T03:26:22;2.10;;;1.90;;
19257;SDS011;9763;48.780;9.212;2023-03-17T03:29:47;1.90;;;1.70;;
19257;SDS011;9763;48.780;9.212;2023-03-17T03:33:12;2.30;;;1.83;;
19257;SDS011;9763;48.780;9.212;2023-03-17T03:36:37;2.63;;;1.60;;
19257;SDS011;9763;48.780;9.212;2023-03-17T03:40:00;2.10;;;1.80;;
19257;SDS011;9763;48.780;9.212;2023-03-17T03:43:24;1.70;;;1.33;;
19257;SDS011;9763;48.780;9.212;2023-03-17T03:46:49;1.70;;;1.60;;
19257;SDS011;9763;48.780;9.212;2023-03-17T03:50:13;3.37;;;1.50;;
19257;SDS011;9763;48.780;9.212;2023-03-17T03:53:37;1.93;;;1.53;;
19257;SDS011;9763;48.780;9.212;2023-03-17T03:57:00;1.67;;;1.33;;
19257;SDS011;9763;48.780;9.212;2023-03-17T04:00:24;1.90;;;1.50;;
19257;SDS011;9763;48.780;9.212;2023-03-17T04:03:49;2.57;;;1.70;;
19257;SDS011;9763;48.780;9.212;2023-03-17T04:07:13;2.00;;;1.60;;
19257;SDS011;9763;48.780;9.212;2023-03-17T04:10:36;1.60;;;1.50;;
19257;SDS011;9763;48.780;9.212;2023-03-17T04:14:00;2.10;;;1.70;;
19257;SDS011;9763;48.780;9.212;2023-03-17T04:17:24;1.83;;;1.73;;
19257;SDS011;9763;48.780;9.212;2023-03-17T04:20:49;1.87;;;1.63;;
19257;SDS011;9763;48.780;9.212;2023-03-17T04:24:13;2.37;;;1.60;;
19257;SDS011;9763;48.780;9.212;2023-03-17T04:27:36;2.57;;;2.00;;
19257;SDS011;9763;48.780;9.212;2023-03-17T04:31:00;2.40;;;2.10;;
19257;SDS011;9763;48.780;9.212;2023-03-17T04:34:23;2.10;;;1.90;;
19257;SDS011;9763;48.780;9.212;2023-03-17T04:37:49;2.10;;;1.87;;
19257;SDS011;9763;48.780;9.212;2023-03-17T04:41:14;1.93;;;1.60;;
19257;SDS011;9763;48.780;9.212;2023-03-17T04:44:37;2.00;;;1.80;;
19257;SDS011;9763;48.780;9.212;2023-03-17T04:48:02;1.87;;;1.67;;
19257;SDS011;9763;48.780;9.212;2023-03-17T04:51:26;2.10;;;1.53;;
19257;SDS011;9763;48.780;9.212;2023-03-17T04:54:51;2.27;;;1.97;;
19257;SDS011;9763;48.780;9.212;2023-03-17T04:58:15;2.07;;;1.87;;
19257;SDS011;9763;48.780;9.212;2023-03-17T05:01:51;2.27;;;1.90;;
19257;SDS011;9763;48.780;9.212;2023-03-17T05:05:15;1.90;;;1.70;;
19257;SDS011;9763;48.780;9.212;2023-03-17T05:08:39;3.30;;;2.17;;
19257;SDS011;9763;48.780;9.212;2023-03-17T05:12:06;2.57;;;2.33;;
19257;SDS011;9763;48.780;9.212;2023-03-17T05:15:30;3.30;;;2.10;;
19257;SDS011;9763;48.780;9.212;2023-03-17T05:18:54;1.93;;;1.73;;
19257;SDS011;9763;48.780;9.212;2023-03-17T05:22:17;3.00;;;2.70;;
19257;SDS011;9763;48.780;9.212;2023-03-17T05:25:41;2.83;;;2.60;;
19257;SDS011;9763;48.780;9.212;2023-03-17T05:29:06;2.30;;;2.10;;
19257;SDS011;9763;48.780;9.212;2023-03-17T05:32:30;1.83;;;1.63;;
19257;SDS011;9763;48.780;9.212;2023-03-17T05:35:54;2.10;;;1.90;;
19257;SDS011;9763;48.780;9.212;2023-03-17T05:39:18;1.77;;;1.60;;
19257;SDS011;9763;48.780;9.212;2023-03-17T05:42:41;3.00;;;1.97;;
19257;SDS011;9763;48.780;9.212;2023-03-17T05:46:06;4.83;;;2.17;;
19257;SDS011;9763;48.780;9.212;2023-03-17T05:49:31;2.17;;;1.90;;
19257;SDS011;9763;48.780;9.212;2023-03-17T05:52:54;2.33;;;2.13;;
19257;SDS011;9763;48.780;9.212;2023-03-17T05:56:18;1.80;;;1.70;;
19257;SDS011;9763;48.780;9.212;2023-03-17T05:59:42;1.90;;;1.70;;
19257;SDS011;9763;48.780;9.212;2023-03-17T06:03:07;2.90;;;1.93;;
19257;SDS011;9763;48.780;9.212;2023-03-17T06:06:31;2.10;;;1.70;;
19257;SDS011;9763;48.780;9.212;2023-03-17T06:09:54;2.13;;;1.93;;
19257;SDS011;9763;48.780;9.212;2023-03-17T06:13:18;2.60;;;1.70;;
19257;SDS011;9763;48.780;9.212;2023-03-17T06:16:41;2.60;;;2.17;;
19257;SDS011;9763;48.780;9.212;2023-03-17T06:20:07;2.07;;;1.90;;
19257;SDS011;9763;48.780;9.212;2023-03-17T06:23:32;3.20;;;2.00;;
19257;SDS011;9763;48.780;9.212;2023-03-17T06:26:57;2.20;;;2.00;;
19257;SDS011;9763;48.780;9.212;2023-03-17T06:30:21;2.37;;;1.80;;
19257;SDS011;9763;48.780;9.212;2023-03-17T06:33:45;2.10;;;1.80;;
19257;SDS011;9763;48.780;9.212;2023-03-17T06:37:10;1.90;;;1.70;;
19257;SDS011;9763;48.780;9.212;2023-03-17T06:40:34;2.33;;;2.13;;
19257;SDS011;9763;48.780;9.212;2023-03-17T06:43:58;1.67;;;1.57;;
19257;SDS011;9763;48.780;9.212;2023-03-17T06:47:22;2.10;;;1.50;;
19257;SDS011;9763;48.780;9.212;2023-03-17T06:50:46;2.33;;;1.60;;
19257;SDS011;9763;48.780;9.212;2023-03-17T06:54:12;2.63;;;1.67;;
19257;SDS011;9763;48.780;9.212;2023-03-17T06:57:35;2.93;;;1.73;;
19257;SDS011;9763;48.780;9.212;2023-03-17T07:00:58;2.13;;;1.93;;
19257;SDS011;9763;48.780;9.212;2023-03-17T07:04:23;1.97;;;1.77;;
19257;SDS011;9763;48.780;9.212;2023-03-17T07:07:47;2.27;;;1.70;;
19257;SDS011;9763;48.780;9.212;2023-03-17T07:11:12;2.50;;;2.20;;
19257;SDS011;9763;48.780;9.212;2023-03-17T07:14:36;3.80;;;1.83;;
19257;SDS011;9763;48.780;9.212;2023-03-17T07:17:59;2.13;;;1.70;;
19257;SDS011;9763;48.780;9.212;2023-03-17T07:21:23;2.47;;;2.20;;
19257;SDS011;9763;48.780;9.212;2023-03-17T07:24:47;2.90;;;2.23;;
19257;SDS011;9763;48.780;9.212;2023-03-17T07:28:11;2.20;;;2.00;;
19257;SDS011;9763;48.780;9.212;2023-03-17T07:31:36;2.83;;;2.20;;
19257;SDS011;9763;48.780;9.212;2023-03-17T07:35:02;2.40;;;2.00;;
19257;SDS011;9763;48.780;9.212;2023-03-17T07:38:28;2.43;;;2.10;;
19257;SDS011;9763;48.780;9.212;2023-03-17T07:41:52;3.70;;;2.50;;
19257;SDS011;9763;48.780;9.212;2023-03-17T07:45:18;2.57;;;2.37;;
19257;SDS011;9763;48.780;9.212;2023-03-17T07:48:41;2.50;;;2.23;;
19257;SDS011;9763;48.780;9.212;2023-03-17T07:52:05;2.17;;;1.97;;
19257;SDS011;9763;48.780;9.212;2023-03-17T07:55:29;2.27;;;2.07;;
19257;SDS011;9763;48.780;9.212;2023-03-17T07:58:54;2.20;;;2.00;;
19257;SDS011;9763;48.780;9.212;2023-03-17T08:02:20;2.20;;;1.97;;
19257;SDS011;9763;48.780;9.212;2023-03-17T08:05:43;1.80;;;1.70;;
19257;SDS011;9763;48.780;9.212;2023-03-17T08:09:07;1.93;;;1.80;;
19257;SDS011;9763;48.780;9.212;2023-03-17T08:12:32;4.63;;;1.83;;
19257;SDS011;9763;48.780;9.212;2023-03-17T08:15:57;3.00;;;2.03;;
19257;SDS011;9763;48.780;9.212;2023-03-17T08:19:22;2.43;;;2.17;;
19257;SDS011;9763;48.780;9.212;2023-03-17T08:22:45;2.03;;;1.83;;
19257;SDS011;9763;48.780;9.212;2023-03-17T08:26:09;3.40;;;2.43;;
19257;SDS011;9763;48.780;9.212;2023-03-17T08:29:34;1.83;;;1.73;;
19257;SDS011;9763;48.780;9.212;2023-03-17T08:32:58;2.37;;;1.93;;
19257;SDS011;9763;48.780;9.212;2023-03-17T08:36:23;2.43;;;2.23;;
19257;SDS011;9763;48.780;9.212;2023-03-17T08:39:47;2.80;;;2.20;;
19257;SDS011;9763;48.780;9.212;2023-03-17T08:43:11;2.63;;;2.10;;
19257;SDS011;9763;48.780;9.212;2023-03-17T08:46:34;2.50;;;2.20;;
19257;SDS011;9763;48.780;9.212;2023-03-17T08:49:58;2.37;;;2.10;;
19257;SDS011;9763;48.780;9.212;2023-03-17T08:53:23;4.87;;;2.20;;
19257;SDS011;9763;48.780;9.212;2023-03-17T08:56:47;2.40;;;2.20;;
19257;SDS011;9763;48.780;9.212;2023-03-17T09:00:12;2.47;;;2.27;;
19257;SDS011;9763;48.780;9.212;2023-03-17T09:03:41;3.00;;;2.40;;
19257;SDS011;9763;48.780;9.212;2023-03-17T09:07:05;2.50;;;2.30;;
19257;SDS011;9763;48.780;9.212;2023-03-17T09:10:33;2.90;;;2.70;;
19257;SDS011;9763;48.780;9.212;2023-03-17T09:13:57;2.73;;;2.53;;
19257;SDS011;9763;48.780;9.212;2023-03-17T09:17:21;3.57;;;2.70;;
19257;SDS011;9763;48.780;9.212;2023-03-17T09:20:45;2.63;;;2.43;;
19257;SDS011;9763;48.780;9.212;2023-03-17T09:24:08;2.37;;;2.17;;
19257;SDS011;9763;48.780;9.212;2023-03-17T09:27:34;2.53;;;2.20;;
19257;SDS011;9763;48.780;9.212;2023-03-17T09:30:58;2.50;;;2.23;;
19257;SDS011;9763;48.780;9.212;2023-03-17T09:34:23;3.43;;;2.40;;
19257;SDS011;9763;48.780;9.212;2023-03-17T09:37:47;3.37;;;2.43;;
19257;SDS011;9763;48.780;9.212;2023-03-17T09:41:17;2.67;;;2.20;;
19257;SDS011;9763;48.780;9.212;2023-03-17T09:44:58;3.20;;;2.40;;
19257;SDS011;9763;48.780;9.212;2023-03-17T09:48:28;4.00;;;3.27;;
19257;SDS011;9763;48.780;9.212;2023-03-17T09:52:02;3.80;;;2.90;;
19257;SDS011;9763;48.780;9.212;2023-03-17T09:55:27;2.57;;;2.37;;
19257;SDS011;9763;48.780;9.212;2023-03-17T09:58:53;2.77;;;2.50;;
19257;SDS011;9763;48.780;9.212;2023-03-17T10:02:24;2.60;;;2.40;;
19257;SDS011;9763;48.780;9.212;2023-03-17T10:05:53;3.70;;;2.03;;
19257;SDS011;9763;48.780;9.212;2023-03-17T10:09:34;3.53;;;2.00;;
19257;SDS011;9763;48.780;9.212;2023-03-17T10:13:07;2.53;;;2.00;;
19257;SDS011;9763;48.780;9.212;2023-03-17T10:16:45;2.90;;;1.90;;
19257;SDS011;9763;48.780;9.212;2023-03-17T10:20:16;2.30;;;2.10;;
